Nagano, Japan
Current Conditions -  °F | °C
As of 3:00 PM on Sunday 21 Dec 2014 (Local Time) from RJNT Reporting Station
Broken Clouds Broken Clouds  
Wind Chill: 38°   Ceiling: 4000
Heat Index: 41°   Visibility: 6mi
Dew Point: 36°   Wind: 5mph
Humidity: 81%   Direction: 190°S
Pressure: 29.88"   Gusts: NA
Location:  36.65°N, 138.18°E
Report Text: RJNT 210600Z 19004KT 150V230 9999 FEW010 SCT025 BKN040 05/02 Q1012
Loading
Personal Weather Stations






























Interactive Weather Map New forecast layout! Learn more

10-Day Weather Forecast

Advertisements
Track Severe Weather on mobile